createdAt,value
2022-08-11T00:00:01.652Z,0.00
2022-08-11T00:00:59.502Z,0.00
2022-08-11T00:01:54.539Z,0.00
2022-08-11T00:02:49.645Z,0.00
2022-08-11T00:03:44.709Z,0.00
2022-08-11T00:04:39.789Z,0.00
2022-08-11T00:05:34.820Z,0.00
2022-08-11T00:06:29.916Z,0.00
2022-08-11T00:07:24.959Z,0.00
2022-08-11T00:08:20.028Z,0.00
2022-08-11T00:09:15.110Z,0.00
2022-08-11T00:10:10.169Z,0.00
2022-08-11T00:11:05.289Z,0.00
2022-08-11T00:12:00.269Z,0.00
2022-08-11T00:12:55.347Z,0.00
2022-08-11T00:13:50.561Z,0.00
2022-08-11T00:14:46.297Z,0.00
2022-08-11T00:15:41.498Z,0.00
2022-08-11T00:16:37.369Z,0.00
2022-08-11T00:17:32.441Z,0.00
2022-08-11T00:18:27.625Z,0.00
2022-08-11T00:20:12.424Z,0.00
2022-08-11T00:20:19.675Z,0.00
2022-08-11T00:21:13.939Z,0.00
2022-08-11T00:22:08.976Z,0.00
2022-08-11T00:23:04.007Z,0.00
2022-08-11T00:23:59.138Z,0.00
2022-08-11T00:24:58.571Z,0.00
2022-08-11T00:25:50.785Z,0.00
2022-08-11T00:26:45.022Z,0.00
2022-08-11T00:27:40.778Z,0.00
2022-08-11T00:28:35.938Z,0.00
2022-08-11T00:29:31.463Z,0.00
2022-08-11T00:30:27.084Z,0.00
2022-08-11T00:31:22.306Z,0.00
2022-08-11T00:32:18.087Z,0.00
2022-08-11T00:33:13.245Z,0.00
2022-08-11T00:34:08.548Z,0.00
2022-08-11T00:35:50.819Z,0.00
2022-08-11T00:36:00.521Z,0.00
2022-08-11T00:36:54.768Z,0.00
2022-08-11T00:37:49.870Z,0.00
2022-08-11T00:38:44.793Z,0.00
2022-08-11T00:39:39.950Z,0.00
2022-08-11T00:40:34.881Z,0.00
2022-08-11T00:41:29.920Z,0.00
2022-08-11T00:42:25.041Z,0.00
2022-08-11T00:43:20.880Z,0.00
2022-08-11T00:44:20.420Z,0.00
2022-08-11T00:45:15.579Z,0.00
2022-08-11T00:46:10.906Z,0.00
2022-08-11T00:47:06.839Z,0.00
2022-08-11T00:48:02.049Z,0.00
2022-08-11T00:48:57.232Z,0.00
2022-08-11T00:49:52.382Z,0.00
2022-08-11T00:50:48.267Z,0.00
2022-08-11T00:52:04.480Z,0.00
2022-08-11T00:52:40.110Z,0.00
2022-08-11T00:53:34.352Z,0.00
2022-08-11T00:54:33.185Z,0.00
2022-08-11T00:55:25.486Z,0.00
2022-08-11T00:56:20.865Z,0.00
2022-08-11T00:57:37.022Z,0.00
2022-08-11T00:58:12.714Z,0.00
2022-08-11T00:59:26.347Z,0.00
2022-08-11T01:00:03.977Z,0.00
2022-08-11T01:00:58.652Z,0.00
2022-08-11T01:01:53.832Z,0.00
2022-08-11T01:02:49.692Z,0.00
2022-08-11T01:03:44.732Z,0.00
2022-08-11T01:04:39.933Z,0.00
2022-08-11T01:05:35.737Z,0.00
2022-08-11T01:06:30.920Z,0.00
2022-08-11T01:08:01.582Z,0.00
2022-08-11T01:08:22.283Z,0.00
2022-08-11T01:09:20.994Z,0.00
2022-08-11T01:10:12.765Z,0.00
2022-08-11T01:11:07.099Z,0.00
2022-08-11T01:12:03.355Z,0.00
2022-08-11T01:12:58.543Z,0.00
2022-08-11T01:13:53.822Z,0.00
2022-08-11T01:14:49.658Z,0.00
2022-08-11T01:15:57.259Z,0.00
2022-08-11T01:16:41.111Z,0.00
2022-08-11T01:19:00.206Z,0.00
2022-08-11T01:20:45.212Z,0.00
2022-08-11T01:20:51.449Z,0.00
2022-08-11T01:21:45.706Z,0.00
2022-08-11T01:22:40.852Z,0.00
2022-08-11T01:23:36.022Z,0.00
2022-08-11T01:24:31.212Z,0.00
2022-08-11T01:25:26.363Z,0.00
2022-08-11T01:26:21.651Z,0.00
2022-08-11T01:27:19.076Z,0.00
2022-08-11T01:28:11.900Z,0.00
2022-08-11T01:29:07.059Z,0.00
2022-08-11T01:30:02.220Z,0.00
2022-08-11T01:30:57.417Z,0.00
2022-08-11T01:31:52.626Z,0.00
2022-08-11T01:32:47.753Z,0.00
2022-08-11T01:33:43.025Z,0.00
2022-08-11T01:34:38.196Z,0.00
2022-08-11T01:35:33.339Z,0.00
2022-08-11T01:36:28.677Z,0.00
2022-08-11T01:37:23.710Z,0.00
2022-08-11T01:38:18.858Z,0.00
2022-08-11T01:39:14.087Z,0.00
2022-08-11T01:40:09.333Z,0.00
2022-08-11T01:41:04.531Z,0.00
2022-08-11T01:41:59.692Z,0.00
2022-08-11T01:42:54.818Z,0.00
2022-08-11T01:43:50.011Z,0.00
2022-08-11T01:44:45.146Z,0.00
2022-08-11T01:45:40.326Z,0.00
2022-08-11T01:46:35.683Z,0.00
2022-08-11T01:47:30.680Z,0.00
2022-08-11T01:48:26.087Z,0.00
2022-08-11T01:50:05.179Z,0.00
2022-08-11T01:50:17.304Z,0.00
2022-08-11T01:51:16.970Z,0.00
2022-08-11T01:52:07.746Z,0.00
2022-08-11T01:53:01.949Z,0.00
2022-08-11T01:53:57.371Z,0.00
2022-08-11T01:54:52.399Z,0.00
2022-08-11T01:55:47.614Z,0.00
2022-08-11T01:56:42.753Z,0.00
2022-08-11T01:57:38.056Z,0.00
2022-08-11T01:58:40.778Z,0.00
2022-08-11T01:59:29.285Z,0.00
2022-08-11T02:00:23.494Z,0.00
2022-08-11T02:01:18.859Z,0.00
2022-08-11T02:02:16.672Z,0.00
2022-08-11T02:03:10.244Z,0.00
2022-08-11T02:04:04.429Z,0.00
2022-08-11T02:04:59.832Z,0.00
2022-08-11T02:05:54.875Z,0.00
2022-08-11T02:06:50.061Z,0.00
2022-08-11T02:07:45.225Z,0.00
2022-08-11T02:08:41.963Z,0.00
2022-08-11T02:09:36.538Z,0.00
2022-08-11T02:10:35.509Z,0.00
2022-08-11T02:11:26.928Z,0.00
2022-08-11T02:12:21.090Z,0.00
2022-08-11T02:13:16.201Z,0.00
2022-08-11T02:14:11.563Z,0.00
2022-08-11T02:15:06.708Z,0.00
2022-08-11T02:16:01.869Z,0.00
2022-08-11T02:16:57.179Z,0.00
2022-08-11T02:17:54.835Z,0.00
2022-08-11T02:18:47.359Z,0.00
2022-08-11T02:19:42.599Z,0.00
2022-08-11T02:20:37.800Z,0.00
2022-08-11T02:21:33.107Z,0.00
2022-08-11T02:22:28.206Z,0.00
2022-08-11T02:24:05.742Z,0.00
2022-08-11T02:24:19.538Z,0.00
2022-08-11T02:25:13.743Z,0.00
2022-08-11T02:26:08.962Z,0.00
2022-08-11T02:27:04.181Z,0.00
2022-08-11T02:27:59.327Z,0.00
2022-08-11T02:28:54.621Z,0.00
2022-08-11T02:29:49.653Z,0.00
2022-08-11T02:30:44.944Z,0.00
2022-08-11T02:32:15.671Z,0.00
2022-08-11T02:32:36.545Z,0.00
2022-08-11T02:33:30.490Z,0.00
2022-08-11T02:34:25.641Z,0.00
2022-08-11T02:35:20.805Z,0.00
2022-08-11T02:36:16.002Z,0.00
2022-08-11T02:37:11.232Z,0.00
2022-08-11T02:38:06.534Z,0.00
2022-08-11T02:39:01.561Z,0.00
2022-08-11T02:39:56.697Z,0.00
2022-08-11T02:40:51.880Z,0.00
2022-08-11T02:41:47.060Z,0.00
2022-08-11T02:42:42.355Z,0.00
2022-08-11T02:43:37.431Z,0.00
2022-08-11T02:44:32.576Z,0.00
2022-08-11T02:45:28.017Z,0.00
2022-08-11T02:46:23.051Z,0.00
2022-08-11T02:47:18.187Z,0.00
2022-08-11T02:48:13.359Z,0.00
2022-08-11T02:49:08.546Z,0.00
2022-08-11T02:50:07.416Z,0.00
2022-08-11T02:50:58.960Z,0.00
2022-08-11T02:51:54.089Z,0.00
2022-08-11T02:52:49.253Z,0.00
2022-08-11T02:53:44.419Z,0.00
2022-08-11T02:54:40.575Z,0.00
2022-08-11T02:55:56.325Z,0.00
2022-08-11T02:56:31.005Z,0.00
2022-08-11T02:57:25.220Z,0.00
2022-08-11T02:58:22.107Z,0.00
2022-08-11T02:59:16.565Z,0.00
2022-08-11T03:00:10.799Z,0.00
2022-08-11T03:01:05.962Z,0.00
2022-08-11T03:02:05.299Z,0.00
2022-08-11T03:02:56.366Z,0.00
2022-08-11T03:03:51.514Z,0.00
2022-08-11T03:04:46.668Z,0.00
2022-08-11T03:05:41.981Z,0.00
2022-08-11T03:06:37.124Z,0.00
2022-08-11T03:07:32.290Z,0.00
2022-08-11T03:08:27.572Z,0.00
2022-08-11T03:09:22.736Z,0.00
2022-08-11T03:10:17.911Z,0.00
2022-08-11T03:11:13.088Z,0.00
2022-08-11T03:12:08.355Z,0.00
2022-08-11T03:13:03.415Z,0.00
2022-08-11T03:13:58.589Z,0.00
2022-08-11T03:14:53.830Z,0.00
2022-08-11T03:15:48.982Z,0.00
2022-08-11T03:16:44.248Z,0.00
2022-08-11T03:17:39.409Z,0.00
2022-08-11T03:18:34.556Z,0.00
2022-08-11T03:19:29.696Z,0.00
2022-08-11T03:20:24.945Z,0.00
2022-08-11T03:21:21.182Z,0.00
2022-08-11T03:22:15.409Z,0.00
2022-08-11T03:23:20.232Z,0.00
2022-08-11T03:24:06.849Z,0.00
2022-08-11T03:25:01.092Z,0.00
2022-08-11T03:25:56.274Z,0.00
2022-08-11T03:26:51.567Z,0.00
2022-08-11T03:27:46.624Z,0.00
2022-08-11T03:28:41.755Z,0.00
2022-08-11T03:29:36.943Z,0.00
2022-08-11T03:30:32.184Z,0.00
2022-08-11T03:31:27.515Z,0.00
2022-08-11T03:32:22.665Z,0.00
2022-08-11T03:33:17.826Z,0.00
2022-08-11T03:34:13.108Z,0.00
2022-08-11T03:35:08.142Z,0.00
2022-08-11T03:36:03.350Z,0.00
2022-08-11T03:37:17.913Z,0.00
2022-08-11T03:37:54.724Z,0.00
2022-08-11T03:38:48.951Z,0.00
2022-08-11T03:39:56.043Z,0.00
2022-08-11T03:40:40.289Z,0.00
2022-08-11T03:42:03.543Z,0.00
2022-08-11T03:42:30.705Z,0.00
2022-08-11T03:43:25.184Z,0.00
2022-08-11T03:44:20.117Z,0.00
2022-08-11T03:45:15.282Z,0.00
2022-08-11T03:46:10.459Z,0.00
2022-08-11T03:47:05.690Z,0.00
2022-08-11T03:48:01.012Z,0.00
2022-08-11T03:48:56.221Z,0.00
2022-08-11T03:49:51.429Z,0.00
2022-08-11T03:50:46.677Z,0.00
2022-08-11T03:51:51.922Z,0.00
2022-08-11T03:52:38.176Z,0.00
2022-08-11T03:53:32.321Z,0.00
2022-08-11T03:54:27.500Z,0.00
2022-08-11T03:55:22.722Z,0.00
2022-08-11T03:56:17.982Z,0.00
2022-08-11T03:57:13.188Z,0.00
2022-08-11T03:58:08.529Z,0.00
2022-08-11T03:59:03.619Z,0.00
2022-08-11T03:59:58.838Z,0.00
2022-08-11T04:00:54.121Z,0.00
2022-08-11T04:01:49.366Z,0.00
2022-08-11T04:02:44.614Z,0.00
2022-08-11T04:03:39.905Z,0.00
2022-08-11T04:04:35.172Z,0.00
2022-08-11T04:05:30.514Z,0.00
2022-08-11T04:06:25.794Z,0.00
2022-08-11T04:07:21.064Z,0.00
2022-08-11T04:08:16.491Z,0.00
2022-08-11T04:09:11.669Z,0.00
2022-08-11T04:10:06.967Z,0.00
2022-08-11T04:11:02.365Z,0.00
2022-08-11T04:11:57.740Z,0.00
2022-08-11T04:12:53.285Z,0.00
2022-08-11T04:13:48.371Z,0.00
2022-08-11T04:14:43.698Z,0.00
2022-08-11T04:15:39.031Z,0.00
2022-08-11T04:16:34.404Z,0.00
2022-08-11T04:17:29.739Z,0.00
2022-08-11T04:18:25.210Z,0.00
2022-08-11T04:19:20.444Z,0.00
2022-08-11T04:20:15.789Z,0.00
2022-08-11T04:21:11.170Z,0.00
2022-08-11T04:22:06.521Z,0.00
2022-08-11T04:23:01.838Z,0.00
2022-08-11T04:24:37.228Z,0.00
2022-08-11T04:24:53.550Z,0.00
2022-08-11T04:25:57.786Z,0.00
2022-08-11T04:26:44.313Z,0.00
2022-08-11T04:27:39.295Z,0.00
2022-08-11T04:28:34.037Z,0.00
2022-08-11T04:29:35.944Z,0.00
2022-08-11T04:30:26.744Z,0.00
2022-08-11T04:31:50.660Z,0.00
2022-08-11T04:32:16.643Z,0.00
2022-08-11T04:33:10.916Z,0.00
2022-08-11T04:34:06.298Z,0.00
2022-08-11T04:35:01.660Z,0.00
2022-08-11T04:35:57.060Z,0.00
2022-08-11T04:36:52.415Z,0.00
2022-08-11T04:37:53.334Z,0.00
2022-08-11T04:38:44.132Z,0.00
2022-08-11T04:39:38.566Z,0.00
2022-08-11T04:40:33.925Z,0.00
2022-08-11T04:41:29.252Z,0.00
2022-08-11T04:42:28.335Z,0.00
2022-08-11T04:43:21.071Z,0.00
2022-08-11T04:44:15.373Z,0.00
2022-08-11T04:45:10.804Z,0.00
2022-08-11T04:46:06.182Z,0.00
2022-08-11T04:47:01.645Z,0.00
2022-08-11T04:48:03.329Z,0.00
2022-08-11T04:48:53.558Z,0.00
2022-08-11T04:49:47.871Z,0.00
2022-08-11T04:50:43.282Z,0.00
2022-08-11T04:51:39.727Z,0.00
2022-08-11T04:52:35.936Z,0.00
2022-08-11T04:53:29.600Z,0.00
2022-08-11T04:54:28.526Z,0.00
2022-08-11T04:55:20.397Z,0.00
2022-08-11T04:56:15.895Z,0.00
2022-08-11T04:57:11.199Z,0.00
2022-08-11T04:58:06.600Z,0.00
2022-08-11T04:59:02.001Z,0.00
2022-08-11T04:59:57.387Z,0.00
2022-08-11T05:00:52.751Z,0.00
2022-08-11T05:01:48.257Z,0.00
2022-08-11T05:02:43.573Z,0.00
2022-08-11T05:03:39.087Z,0.00
2022-08-11T05:04:34.520Z,0.00
2022-08-11T05:05:29.735Z,0.00
2022-08-11T05:06:25.150Z,0.00
2022-08-11T05:07:20.578Z,0.00
2022-08-11T05:08:17.719Z,0.00
2022-08-11T05:09:11.414Z,0.00
2022-08-11T05:10:06.833Z,0.00
2022-08-11T05:11:02.203Z,0.00
2022-08-11T05:11:59.472Z,0.00
2022-08-11T05:12:53.116Z,0.00
2022-08-11T05:13:48.496Z,0.00
2022-08-11T05:14:44.046Z,0.00
2022-08-11T05:15:42.494Z,0.00
2022-08-11T05:16:34.670Z,0.00
2022-08-11T05:17:30.082Z,0.00
2022-08-11T05:18:25.453Z,0.00
2022-08-11T05:19:20.884Z,0.00
2022-08-11T05:20:16.270Z,0.00
2022-08-11T05:21:11.819Z,0.00
2022-08-11T05:22:07.164Z,0.00
2022-08-11T05:23:02.545Z,0.00
2022-08-11T05:23:57.981Z,0.00
2022-08-11T05:24:53.460Z,0.00
2022-08-11T05:26:45.430Z,0.00
2022-08-11T05:26:49.269Z,0.00
2022-08-11T05:27:39.707Z,0.00
2022-08-11T05:28:35.511Z,0.00
2022-08-11T05:29:30.678Z,0.00
2022-08-11T05:30:26.128Z,0.00
2022-08-11T05:31:21.589Z,0.00
2022-08-11T05:32:17.186Z,0.00
2022-08-11T05:33:12.626Z,0.00
2022-08-11T05:34:08.077Z,0.00
2022-08-11T05:35:03.507Z,0.00
2022-08-11T05:36:01.876Z,0.00
2022-08-11T05:36:59.179Z,0.00
2022-08-11T05:37:50.785Z,0.00
2022-08-11T05:38:45.138Z,0.00
2022-08-11T05:39:40.566Z,0.00
2022-08-11T05:40:35.995Z,0.00
2022-08-11T05:41:31.615Z,0.00
2022-08-11T05:42:30.068Z,0.00
2022-08-11T05:43:22.531Z,0.00
2022-08-11T05:44:20.511Z,0.00
2022-08-11T05:45:15.692Z,0.00
2022-08-11T05:46:13.113Z,0.00
2022-08-11T05:47:04.489Z,0.00
2022-08-11T05:47:59.864Z,0.00
2022-08-11T05:48:55.343Z,0.00
2022-08-11T05:49:50.923Z,0.00
2022-08-11T05:50:46.400Z,0.00
2022-08-11T05:51:51.945Z,0.00
2022-08-11T05:52:41.621Z,0.00
2022-08-11T05:53:45.905Z,0.00
2022-08-11T05:54:29.706Z,0.00
2022-08-11T05:55:23.451Z,0.00
2022-08-11T05:56:18.849Z,0.00
2022-08-11T05:57:48.687Z,0.00
2022-08-11T05:58:10.880Z,0.00
2022-08-11T05:59:05.363Z,0.00
2022-08-11T06:00:00.829Z,0.00
2022-08-11T06:00:56.157Z,0.00
2022-08-11T06:01:51.640Z,0.00
2022-08-11T06:02:47.058Z,0.00
2022-08-11T06:03:42.522Z,0.00
2022-08-11T06:04:38.946Z,0.00
2022-08-11T06:05:37.327Z,0.00
2022-08-11T06:06:29.900Z,0.00
2022-08-11T06:07:24.422Z,0.00
2022-08-11T06:08:19.886Z,0.00
2022-08-11T06:09:15.338Z,0.00
2022-08-11T06:10:10.767Z,0.00
2022-08-11T06:11:06.349Z,0.00
2022-08-11T06:12:01.779Z,0.00
2022-08-11T06:12:57.273Z,0.00
2022-08-11T06:13:52.880Z,0.00
2022-08-11T06:14:48.166Z,0.00
2022-08-11T06:15:43.752Z,0.00
2022-08-11T06:16:39.200Z,0.00
2022-08-11T06:17:38.657Z,0.00
2022-08-11T06:18:30.113Z,0.00
2022-08-11T06:19:25.695Z,0.00
2022-08-11T06:20:21.132Z,0.00
2022-08-11T06:21:16.598Z,0.00
2022-08-11T06:22:12.028Z,0.00
2022-08-11T06:23:07.553Z,0.00
2022-08-11T06:24:02.902Z,0.00
2022-08-11T06:24:58.456Z,0.00
2022-08-11T06:25:56.538Z,0.00
2022-08-11T06:27:11.400Z,0.00
2022-08-11T06:27:45.683Z,0.00
2022-08-11T06:28:40.082Z,0.00
2022-08-11T06:29:38.127Z,0.00
2022-08-11T06:30:32.139Z,0.00
2022-08-11T06:31:26.651Z,0.00
2022-08-11T06:32:22.116Z,0.00
2022-08-11T06:33:17.579Z,0.00
2022-08-11T06:34:27.501Z,0.00
2022-08-11T06:35:09.457Z,0.00
2022-08-11T06:36:03.898Z,0.00
2022-08-11T06:36:59.450Z,0.00
2022-08-11T06:37:58.776Z,0.00
2022-08-11T06:38:50.428Z,0.00
2022-08-11T06:39:45.917Z,0.00
2022-08-11T06:40:41.466Z,0.00
2022-08-11T06:41:36.820Z,0.00
2022-08-11T06:42:32.396Z,0.00
2022-08-11T06:43:27.765Z,0.00
2022-08-11T06:44:23.234Z,0.00
2022-08-11T06:45:18.642Z,0.00
2022-08-11T06:46:14.252Z,0.00
2022-08-11T06:47:10.604Z,0.00
2022-08-11T06:48:04.956Z,0.00
2022-08-11T06:49:00.387Z,0.00
2022-08-11T06:49:55.983Z,0.00
2022-08-11T06:50:51.326Z,0.00
2022-08-11T06:51:47.035Z,0.00
2022-08-11T06:52:42.417Z,0.00
2022-08-11T06:53:37.849Z,0.00
2022-08-11T06:54:33.135Z,0.00
2022-08-11T06:55:57.616Z,0.00
2022-08-11T06:56:25.496Z,0.00
2022-08-11T06:57:29.873Z,0.00
2022-08-11T06:58:16.006Z,0.00
2022-08-11T06:59:10.485Z,0.00
2022-08-11T07:00:05.994Z,0.00
2022-08-11T07:01:01.401Z,0.00
2022-08-11T07:01:56.965Z,0.00
2022-08-11T07:02:52.286Z,0.00
2022-08-11T07:03:47.733Z,0.00
2022-08-11T07:04:43.197Z,0.00
2022-08-11T07:05:38.633Z,0.00
2022-08-11T07:06:41.556Z,0.00
2022-08-11T07:07:30.620Z,0.00
2022-08-11T07:08:34.089Z,0.00
2022-08-11T07:09:21.551Z,0.00
2022-08-11T07:10:16.042Z,0.00
2022-08-11T07:11:11.501Z,0.00
2022-08-11T07:12:06.979Z,0.00
2022-08-11T07:13:02.296Z,0.00
2022-08-11T07:13:57.757Z,0.00
2022-08-11T07:14:53.319Z,0.00
2022-08-11T07:16:12.445Z,0.00
2022-08-11T07:16:45.297Z,0.00
2022-08-11T07:17:39.697Z,0.00
2022-08-11T07:18:35.377Z,0.00
2022-08-11T07:19:30.666Z,0.00
2022-08-11T07:20:26.117Z,0.00
2022-08-11T07:22:01.632Z,1.00
2022-08-11T07:22:18.005Z,1.00
2022-08-11T07:23:12.394Z,1.00
2022-08-11T07:24:07.845Z,1.00
2022-08-11T07:25:03.802Z,1.00
2022-08-11T07:25:58.999Z,1.00
2022-08-11T07:26:54.493Z,1.00
2022-08-11T07:27:50.021Z,2.00
2022-08-11T07:28:45.429Z,4.00
2022-08-11T07:29:40.828Z,4.00
2022-08-11T07:30:36.380Z,4.00
2022-08-11T07:31:31.803Z,5.00
2022-08-11T07:32:27.397Z,5.00
2022-08-11T07:34:08.409Z,5.00
2022-08-11T07:34:19.415Z,5.00
2022-08-11T07:35:14.012Z,4.00
2022-08-11T07:36:09.702Z,4.00
2022-08-11T07:37:05.253Z,5.00
2022-08-11T07:38:02.075Z,5.00
2022-08-11T07:38:56.192Z,5.00
2022-08-11T07:39:51.684Z,5.00
2022-08-11T07:40:46.950Z,4.00
2022-08-11T07:41:42.535Z,5.00
2022-08-11T07:42:38.053Z,5.00
2022-08-11T07:43:33.605Z,5.00
2022-08-11T07:44:34.408Z,5.00
2022-08-11T07:45:25.694Z,5.00
2022-08-11T07:46:19.915Z,5.00
2022-08-11T07:47:15.498Z,5.00
2022-08-11T07:48:11.027Z,5.00
2022-08-11T07:49:06.541Z,5.00
2022-08-11T07:50:01.991Z,5.00
2022-08-11T07:50:57.518Z,5.00
2022-08-11T07:51:53.095Z,5.00
2022-08-11T07:52:48.643Z,5.00
2022-08-11T07:54:03.095Z,5.00
2022-08-11T07:54:40.637Z,6.00
2022-08-11T07:55:50.312Z,5.00
2022-08-11T07:56:54.309Z,5.00
2022-08-11T07:57:57.701Z,6.00
2022-08-11T07:58:22.768Z,6.00
2022-08-11T07:59:17.089Z,6.00
2022-08-11T08:00:12.680Z,5.00
2022-08-11T08:01:10.727Z,5.00
2022-08-11T08:02:04.638Z,6.00
2022-08-11T08:02:59.059Z,6.00
2022-08-11T08:03:54.942Z,5.00
2022-08-11T08:04:50.289Z,5.00
2022-08-11T08:05:45.601Z,6.00
2022-08-11T08:06:41.115Z,6.00
2022-08-11T08:07:36.728Z,6.00
2022-08-11T08:08:32.017Z,6.00
2022-08-11T08:09:27.469Z,6.00
2022-08-11T08:10:23.138Z,6.00
2022-08-11T08:11:21.375Z,6.00
2022-08-11T08:12:15.273Z,7.00
2022-08-11T08:13:09.754Z,6.00
2022-08-11T08:14:05.432Z,5.00
2022-08-11T08:15:01.449Z,6.00
2022-08-11T08:15:56.511Z,6.00
2022-08-11T08:16:52.334Z,6.00
2022-08-11T08:18:20.826Z,6.00
2022-08-11T08:18:44.335Z,6.00
2022-08-11T08:19:38.684Z,6.00
2022-08-11T08:20:34.231Z,5.00
2022-08-11T08:21:29.662Z,6.00
2022-08-11T08:22:37.850Z,6.00
2022-08-11T08:23:21.651Z,6.00
2022-08-11T08:24:16.024Z,7.00
2022-08-11T08:25:11.458Z,7.00
2022-08-11T08:26:16.745Z,6.00
2022-08-11T08:27:03.425Z,6.00
2022-08-11T08:27:57.800Z,6.00
2022-08-11T08:28:53.116Z,7.00
2022-08-11T08:29:48.695Z,7.00
2022-08-11T08:30:44.373Z,7.00
2022-08-11T08:31:39.829Z,7.00
2022-08-11T08:32:35.381Z,6.00
2022-08-11T08:33:31.006Z,7.00
2022-08-11T08:34:26.301Z,7.00
2022-08-11T08:35:21.801Z,7.00
2022-08-11T08:36:17.219Z,7.00
2022-08-11T08:37:16.284Z,7.00
2022-08-11T08:38:09.125Z,7.00
2022-08-11T08:39:03.663Z,7.00
2022-08-11T08:39:59.217Z,7.00
2022-08-11T08:40:56.188Z,7.00
2022-08-11T08:41:50.258Z,7.00
2022-08-11T08:42:45.972Z,7.00
2022-08-11T08:43:49.068Z,7.00
2022-08-11T08:44:40.536Z,7.00
2022-08-11T08:45:32.025Z,8.00
2022-08-11T08:46:28.587Z,8.00
2022-08-11T08:47:43.116Z,8.00
2022-08-11T08:48:19.606Z,8.00
2022-08-11T08:49:13.788Z,8.00
2022-08-11T08:50:09.338Z,7.00
2022-08-11T08:51:07.978Z,7.00
2022-08-11T08:52:31.914Z,7.00
2022-08-11T08:52:56.765Z,7.00
2022-08-11T08:53:52.633Z,8.00
2022-08-11T08:54:47.695Z,8.00
2022-08-11T08:55:45.470Z,8.00
2022-08-11T08:56:37.645Z,8.00
2022-08-11T08:57:39.804Z,8.00
2022-08-11T08:58:29.551Z,7.00
2022-08-11T08:59:23.900Z,7.00
2022-08-11T09:00:23.010Z,7.00
2022-08-11T09:01:15.151Z,8.00
2022-08-11T09:02:10.428Z,8.00
2022-08-11T09:03:36.022Z,8.00
2022-08-11T09:04:10.564Z,7.00
2022-08-11T09:04:57.795Z,7.00
2022-08-11T09:05:52.184Z,8.00
2022-08-11T09:06:51.616Z,8.00
2022-08-11T09:07:43.304Z,8.00
2022-08-11T09:08:38.518Z,8.00
2022-08-11T09:09:33.964Z,8.00
2022-08-11T09:10:29.374Z,7.00
2022-08-11T09:11:24.727Z,8.00
2022-08-11T09:12:36.343Z,8.00
2022-08-11T09:13:16.673Z,7.00
2022-08-11T09:14:14.863Z,8.00
2022-08-11T09:15:06.531Z,8.00
2022-08-11T09:16:02.040Z,8.00
2022-08-11T09:16:57.620Z,8.00
2022-08-11T09:17:52.965Z,8.00
2022-08-11T09:18:48.321Z,8.00
2022-08-11T09:19:43.868Z,8.00
2022-08-11T09:20:40.115Z,8.00
2022-08-11T09:21:46.244Z,8.00
2022-08-11T09:22:31.161Z,9.00
2022-08-11T09:24:26.081Z,8.00
2022-08-11T09:25:16.149Z,8.00
2022-08-11T09:26:11.613Z,8.00
2022-08-11T09:27:07.125Z,8.00
2022-08-11T09:28:02.497Z,8.00
2022-08-11T09:28:57.963Z,9.00
2022-08-11T09:29:53.452Z,9.00
2022-08-11T09:30:48.671Z,9.00
2022-08-11T09:31:44.191Z,9.00
2022-08-11T09:32:39.537Z,8.00
2022-08-11T09:33:35.021Z,9.00
2022-08-11T09:34:30.499Z,9.00
2022-08-11T09:35:25.929Z,8.00
2022-08-11T09:36:21.258Z,8.00
2022-08-11T09:37:28.488Z,8.00
2022-08-11T09:38:13.219Z,9.00
2022-08-11T09:39:07.628Z,9.00
2022-08-11T09:40:03.382Z,9.00
2022-08-11T09:40:58.620Z,8.00
2022-08-11T09:42:00.582Z,8.00
2022-08-11T09:42:50.583Z,8.00
2022-08-11T09:43:44.918Z,8.00
2022-08-11T09:44:40.527Z,8.00
2022-08-11T09:45:40.109Z,8.00
2022-08-11T09:46:31.228Z,8.00
2022-08-11T09:47:26.714Z,9.00
2022-08-11T09:48:22.200Z,9.00
2022-08-11T09:49:17.759Z,9.00
2022-08-11T09:50:13.185Z,9.00
2022-08-11T09:51:08.639Z,9.00
2022-08-11T09:52:05.352Z,9.00
2022-08-11T09:53:35.942Z,9.00
2022-08-11T09:54:03.811Z,9.00
2022-08-11T09:54:51.316Z,9.00
2022-08-11T09:55:45.831Z,8.00
2022-08-11T09:56:41.199Z,8.00
2022-08-11T09:57:37.011Z,9.00
2022-08-11T09:58:41.575Z,9.00
2022-08-11T09:59:28.686Z,9.00
2022-08-11T10:00:22.960Z,9.00
2022-08-11T10:01:18.420Z,8.00
2022-08-11T10:02:13.806Z,8.00
2022-08-11T10:03:09.514Z,8.00
2022-08-11T10:04:04.858Z,8.00
2022-08-11T10:05:00.227Z,8.00
2022-08-11T10:05:55.664Z,8.00
2022-08-11T10:06:54.009Z,9.00
2022-08-11T10:07:46.594Z,9.00
2022-08-11T10:08:42.045Z,9.00
2022-08-11T10:09:37.486Z,9.00
2022-08-11T10:10:33.012Z,9.00
2022-08-11T10:11:28.212Z,9.00
2022-08-11T10:12:23.713Z,9.00
2022-08-11T10:14:10.038Z,9.00
2022-08-11T10:14:33.429Z,9.00
2022-08-11T10:15:11.094Z,9.00
2022-08-11T10:16:15.279Z,9.00
2022-08-11T10:17:01.931Z,9.00
2022-08-11T10:17:56.333Z,9.00
2022-08-11T10:18:51.889Z,9.00
2022-08-11T10:20:04.508Z,9.00
2022-08-11T10:20:43.621Z,9.00
2022-08-11T10:21:38.003Z,9.00
2022-08-11T10:22:33.367Z,9.00
2022-08-11T10:23:28.850Z,9.00
2022-08-11T10:24:24.334Z,9.00
2022-08-11T10:25:20.193Z,10.00
2022-08-11T10:26:15.394Z,10.00
2022-08-11T10:27:10.866Z,9.00
2022-08-11T10:28:17.487Z,9.00
2022-08-11T10:29:13.167Z,9.00
2022-08-11T10:29:57.987Z,9.00
2022-08-11T10:30:52.466Z,9.00
2022-08-11T10:31:57.874Z,9.00
2022-08-11T10:32:57.719Z,9.00
2022-08-11T10:33:42.942Z,10.00
2022-08-11T10:34:35.287Z,10.00
2022-08-11T10:35:29.793Z,10.00
2022-08-11T10:36:25.158Z,10.00
2022-08-11T10:37:20.591Z,10.00
2022-08-11T10:38:16.170Z,10.00
2022-08-11T10:39:11.529Z,10.00
2022-08-11T10:40:06.864Z,9.00
2022-08-11T10:41:02.530Z,9.00
2022-08-11T10:42:06.929Z,9.00
2022-08-11T10:42:58.086Z,10.00
2022-08-11T10:44:03.395Z,10.00
2022-08-11T10:44:45.195Z,10.00
2022-08-11T10:45:39.592Z,10.00
2022-08-11T10:46:35.051Z,9.00
2022-08-11T10:47:30.487Z,9.00
2022-08-11T10:48:26.103Z,9.00
2022-08-11T10:49:21.558Z,10.00
2022-08-11T10:50:17.096Z,9.00
2022-08-11T10:51:12.464Z,8.00
2022-08-11T10:52:07.757Z,9.00
2022-08-11T10:53:03.232Z,10.00
2022-08-11T10:53:58.712Z,11.00
2022-08-11T10:54:54.344Z,10.00
2022-08-11T10:55:49.563Z,10.00
2022-08-11T10:56:45.041Z,9.00
2022-08-11T10:57:40.663Z,9.00
2022-08-11T10:58:35.970Z,8.00
2022-08-11T10:59:31.585Z,8.00
2022-08-11T11:00:26.933Z,9.00
2022-08-11T11:01:22.288Z,10.00
2022-08-11T11:02:17.731Z,10.00
2022-08-11T11:03:22.856Z,9.00
2022-08-11T11:04:09.686Z,9.00
2022-08-11T11:05:04.217Z,9.00
2022-08-11T11:06:27.277Z,9.00
2022-08-11T11:06:56.060Z,9.00
2022-08-11T11:07:50.339Z,10.00
2022-08-11T11:08:45.800Z,9.00
2022-08-11T11:09:41.257Z,9.00
2022-08-11T11:10:36.627Z,10.00
2022-08-11T11:11:32.104Z,10.00
2022-08-11T11:12:27.573Z,10.00
2022-08-11T11:13:22.942Z,9.00
2022-08-11T11:14:18.438Z,9.00
2022-08-11T11:15:17.661Z,10.00
2022-08-11T11:16:09.253Z,9.00
2022-08-11T11:17:04.751Z,9.00
2022-08-11T11:18:00.208Z,10.00
2022-08-11T11:19:01.171Z,10.00
2022-08-11T11:19:52.096Z,10.00
2022-08-11T11:20:47.681Z,9.00
2022-08-11T11:21:42.361Z,9.00
2022-08-11T11:22:37.464Z,10.00
2022-08-11T11:23:32.830Z,10.00
2022-08-11T11:24:28.594Z,10.00
2022-08-11T11:25:23.775Z,10.00
2022-08-11T11:26:19.379Z,10.00
2022-08-11T11:27:15.730Z,10.00
2022-08-11T11:28:10.222Z,10.00
2022-08-11T11:29:05.674Z,10.00
2022-08-11T11:30:01.208Z,9.00
2022-08-11T11:30:56.533Z,9.00
2022-08-11T11:31:51.991Z,10.00
2022-08-11T11:32:49.716Z,9.00
2022-08-11T11:33:57.415Z,10.00
2022-08-11T11:34:52.768Z,10.00
2022-08-11T11:35:34.742Z,9.00
2022-08-11T11:36:28.992Z,10.00
2022-08-11T11:37:24.443Z,10.00
2022-08-11T11:38:19.890Z,10.00
2022-08-11T11:39:15.452Z,9.00
2022-08-11T11:40:10.758Z,9.00
2022-08-11T11:41:06.358Z,9.00
2022-08-11T11:42:01.560Z,9.00
2022-08-11T11:42:57.016Z,10.00
2022-08-11T11:43:52.475Z,10.00
2022-08-11T11:44:47.999Z,9.00
2022-08-11T11:45:43.580Z,9.00
2022-08-11T11:46:39.327Z,9.00
2022-08-11T11:47:34.535Z,9.00
2022-08-11T11:48:30.001Z,9.00
2022-08-11T11:49:25.557Z,10.00
2022-08-11T11:50:21.019Z,10.00
2022-08-11T11:51:16.609Z,10.00
2022-08-11T11:52:11.831Z,10.00
2022-08-11T11:53:07.287Z,9.00
2022-08-11T11:54:02.803Z,9.00
2022-08-11T11:54:58.276Z,9.00
2022-08-11T11:55:53.758Z,9.00
2022-08-11T11:56:49.248Z,10.00
2022-08-11T11:57:59.006Z,10.00
2022-08-11T11:58:41.147Z,10.00
2022-08-11T11:59:35.697Z,10.00
2022-08-11T12:00:33.090Z,9.00
2022-08-11T12:01:26.588Z,9.00
2022-08-11T12:02:21.808Z,9.00
2022-08-11T12:03:17.288Z,9.00
2022-08-11T12:04:12.653Z,9.00
2022-08-11T12:05:08.096Z,9.00
2022-08-11T12:06:03.566Z,9.00
2022-08-11T12:06:59.055Z,9.00
2022-08-11T12:08:05.099Z,9.00
2022-08-11T12:08:50.965Z,9.00
2022-08-11T12:09:45.269Z,9.00
2022-08-11T12:10:40.724Z,9.00
2022-08-11T12:11:36.211Z,9.00
2022-08-11T12:12:31.818Z,9.00
2022-08-11T12:13:27.245Z,9.00
2022-08-11T12:14:22.835Z,10.00
2022-08-11T12:15:18.132Z,9.00
2022-08-11T12:16:33.834Z,9.00
2022-08-11T12:17:09.985Z,9.00